createdAt,value
2019-05-06T00:00:56.547Z,15.70
2019-05-06T00:05:54.320Z,16.43
2019-05-06T00:10:56.335Z,15.70
2019-05-06T00:15:58.159Z,15.73
2019-05-06T00:21:00.286Z,14.77
2019-05-06T00:26:13.642Z,14.30
2019-05-06T00:31:17.294Z,15.53
2019-05-06T00:36:18.828Z,15.70
2019-05-06T00:41:25.584Z,16.60
2019-05-06T00:46:30.041Z,16.57
2019-05-06T00:51:33.677Z,16.00
2019-05-06T00:56:35.691Z,16.97
2019-05-06T01:01:37.239Z,18.03
2019-05-06T01:06:39.910Z,18.77
2019-05-06T01:11:41.780Z,18.40
2019-05-06T01:16:43.939Z,17.40
2019-05-06T01:21:46.128Z,16.93
2019-05-06T01:26:48.178Z,17.40
2019-05-06T01:31:50.163Z,17.03
2019-05-06T01:36:54.394Z,16.30
2019-05-06T01:42:04.433Z,16.50
2019-05-06T01:47:06.855Z,16.63
2019-05-06T01:52:08.330Z,15.60
2019-05-06T01:57:09.859Z,15.50
2019-05-06T02:02:11.428Z,15.23
2019-05-06T02:07:14.436Z,15.53
2019-05-06T02:12:16.354Z,15.20
2019-05-06T02:17:17.888Z,14.80
2019-05-06T02:22:26.970Z,35.50
2019-05-06T02:27:28.526Z,32.40
2019-05-06T02:32:35.475Z,30.87
2019-05-06T02:37:39.784Z,31.57
2019-05-06T02:42:43.166Z,32.27
2019-05-06T02:47:53.555Z,31.73
2019-05-06T02:52:53.959Z,31.17
2019-05-06T02:57:55.960Z,33.13
2019-05-06T03:02:57.500Z,32.00
2019-05-06T03:07:59.125Z,32.20
2019-05-06T03:13:04.026Z,32.67
2019-05-06T03:18:07.303Z,33.00
2019-05-06T03:23:14.476Z,33.27
2019-05-06T03:28:16.215Z,33.60
2019-05-06T03:33:40.107Z,33.47
2019-05-06T03:38:22.925Z,33.80
2019-05-06T03:43:24.743Z,35.53
2019-05-06T03:48:33.270Z,35.03
2019-05-06T03:53:34.749Z,35.57
2019-05-06T03:58:37.677Z,36.23
2019-05-06T04:03:47.275Z,34.80
2019-05-06T04:08:43.923Z,30.83
2019-05-06T04:13:47.668Z,32.60
2019-05-06T04:19:03.892Z,29.90
2019-05-06T04:24:09.686Z,29.37
2019-05-06T04:29:13.043Z,28.80
2019-05-06T04:34:19.424Z,29.73
2019-05-06T04:39:19.176Z,27.50
2019-05-06T04:44:23.780Z,26.93
2019-05-06T04:49:24.991Z,27.80
2019-05-06T04:54:26.883Z,25.50
2019-05-06T04:59:29.219Z,24.00
2019-05-06T05:04:33.626Z,24.83
2019-05-06T05:09:35.165Z,24.00
2019-05-06T05:14:42.340Z,22.87
2019-05-06T05:19:44.666Z,23.63
2019-05-06T05:24:46.237Z,22.33
2019-05-06T05:29:48.265Z,22.77
2019-05-06T05:34:52.219Z,23.20
2019-05-06T05:39:56.006Z,22.90
2019-05-06T05:44:57.533Z,21.10
2019-05-06T05:50:16.429Z,18.63
2019-05-06T05:55:18.730Z,19.03
2019-05-06T06:00:22.427Z,18.63
2019-05-06T06:05:24.403Z,16.63
2019-05-06T06:10:42.590Z,15.30
2019-05-06T06:16:02.952Z,14.30
2019-05-06T06:21:28.109Z,12.80
2019-05-06T06:26:27.675Z,12.73
2019-05-06T06:31:37.077Z,10.30
2019-05-06T06:36:58.172Z,9.80
2019-05-06T06:41:59.809Z,9.07
2019-05-06T06:47:02.245Z,9.33
2019-05-06T06:52:10.876Z,10.33
2019-05-06T06:57:16.770Z,8.43
2019-05-06T07:02:35.990Z,8.50
2019-05-06T07:07:43.386Z,9.50
2019-05-06T07:12:42.691Z,12.07
2019-05-06T07:17:44.994Z,13.23
2019-05-06T07:22:46.542Z,13.53
2019-05-06T07:27:48.134Z,13.37
2019-05-06T07:32:50.069Z,11.87
2019-05-06T07:37:53.073Z,11.70
2019-05-06T07:42:57.045Z,9.60
2019-05-06T07:48:03.561Z,8.60
2019-05-06T07:53:06.554Z,9.20
2019-05-06T07:58:08.122Z,10.37
2019-05-06T08:03:09.756Z,9.73
2019-05-06T08:08:12.952Z,11.17
2019-05-06T08:13:14.558Z,9.90
2019-05-06T08:18:16.071Z,9.57
2019-05-06T08:23:35.180Z,9.50
2019-05-06T08:28:41.406Z,8.40
2019-05-06T08:33:40.275Z,8.70
2019-05-06T08:38:59.754Z,9.00
2019-05-06T08:44:02.611Z,15.10
2019-05-06T08:49:04.994Z,15.87
2019-05-06T08:54:27.069Z,14.17
2019-05-06T08:59:29.076Z,13.70
2019-05-06T09:04:32.093Z,8.90
2019-05-06T09:09:34.543Z,6.20
2019-05-06T09:14:37.566Z,4.87
2019-05-06T09:19:39.561Z,4.27
2019-05-06T09:24:42.699Z,3.60
2019-05-06T09:29:46.646Z,5.73
2019-05-06T09:34:52.775Z,3.80
2019-05-06T09:39:53.987Z,5.20
2019-05-06T09:44:55.928Z,5.03
2019-05-06T09:49:57.463Z,4.60
2019-05-06T10:00:09.825Z,4.23
2019-05-06T10:05:11.992Z,4.50
2019-05-06T10:10:13.734Z,5.80
2019-05-06T10:15:16.978Z,4.33
2019-05-06T10:20:18.928Z,3.70
2019-05-06T10:25:22.652Z,4.50
2019-05-06T10:30:28.448Z,4.40
2019-05-06T10:35:32.682Z,4.10
2019-05-06T10:41:03.606Z,3.00
2019-05-06T10:46:01.111Z,3.23
2019-05-06T10:51:16.845Z,3.10
2019-05-06T10:56:28.544Z,4.00
2019-05-06T11:01:33.140Z,4.60
2019-05-06T11:06:35.619Z,5.17
2019-05-06T11:11:38.637Z,3.97
2019-05-06T11:16:40.543Z,4.80
2019-05-06T11:21:45.060Z,4.53
2019-05-06T11:26:46.320Z,4.60
2019-05-06T11:31:49.938Z,3.97
2019-05-06T11:36:53.717Z,4.00
2019-05-06T11:42:14.904Z,3.60
2019-05-06T11:46:58.959Z,3.27
2019-05-06T11:52:09.681Z,4.20
2019-05-06T11:57:14.436Z,3.53
2019-05-06T12:02:21.878Z,4.67
2019-05-06T12:07:24.737Z,4.40
2019-05-06T12:12:26.281Z,5.13
2019-05-06T12:17:27.917Z,9.90
2019-05-06T12:22:35.914Z,11.80
2019-05-06T12:27:43.412Z,12.60
2019-05-06T12:38:05.192Z,13.63
2019-05-06T12:43:24.018Z,26.27
2019-05-06T12:48:33.047Z,17.30
2019-05-06T12:53:33.964Z,15.50
2019-05-06T12:58:43.933Z,11.47
2019-05-06T13:03:44.668Z,11.40
2019-05-06T13:08:58.596Z,14.10
2019-05-06T13:13:59.825Z,16.67
2019-05-06T13:18:58.240Z,17.97
2019-05-06T13:24:04.753Z,23.10
2019-05-06T13:29:09.145Z,23.77
2019-05-06T13:34:12.645Z,22.87
2019-05-06T13:39:15.488Z,25.40
2019-05-06T13:44:17.547Z,28.70
2019-05-06T13:49:22.718Z,29.50
2019-05-06T13:54:24.561Z,31.33
2019-05-06T13:59:30.917Z,27.27
2019-05-06T14:04:34.414Z,24.50
2019-05-06T14:09:40.231Z,25.53
2019-05-06T14:14:39.807Z,22.57
2019-05-06T14:19:42.834Z,24.17
2019-05-06T14:24:46.885Z,22.23
2019-05-06T14:30:04.491Z,27.20
2019-05-06T14:35:06.468Z,25.90
2019-05-06T14:40:11.879Z,24.40
2019-05-06T14:45:14.786Z,25.90
2019-05-06T14:50:18.413Z,25.63
2019-05-06T14:55:22.667Z,22.60
2019-05-06T15:00:24.936Z,24.27
2019-05-06T15:05:33.354Z,24.07
2019-05-06T15:10:42.845Z,26.00
2019-05-06T15:15:45.133Z,28.13
2019-05-06T15:20:46.748Z,30.33
2019-05-06T15:25:48.285Z,32.50
2019-05-06T15:30:57.489Z,35.87
2019-05-06T15:36:02.398Z,35.93
2019-05-06T15:41:05.605Z,37.50
2019-05-06T15:46:07.167Z,37.93
2019-05-06T15:51:09.256Z,36.60
2019-05-06T15:56:12.284Z,37.30
2019-05-06T16:01:14.504Z,37.57
2019-05-06T16:06:16.833Z,35.50
2019-05-06T16:11:18.334Z,36.63
2019-05-06T16:16:23.423Z,36.20
2019-05-06T16:21:28.103Z,37.07
2019-05-06T16:26:30.512Z,37.30
2019-05-06T16:31:33.544Z,36.53
2019-05-06T16:36:36.654Z,36.70
2019-05-06T16:41:38.220Z,37.30
2019-05-06T16:46:39.835Z,38.13
2019-05-06T16:51:43.900Z,37.30
2019-05-06T16:56:49.536Z,37.50
2019-05-06T17:01:52.298Z,37.20
2019-05-06T17:06:54.930Z,37.23
2019-05-06T17:11:57.944Z,37.80
2019-05-06T17:16:59.616Z,37.80
2019-05-06T17:22:02.990Z,36.97
2019-05-06T17:27:05.200Z,36.73
2019-05-06T17:32:25.781Z,37.37
2019-05-06T17:37:47.296Z,37.60
2019-05-06T17:42:48.981Z,38.20
2019-05-06T17:47:52.996Z,37.60
2019-05-06T17:52:55.511Z,38.00
2019-05-06T17:57:57.656Z,37.20
2019-05-06T18:02:59.749Z,37.03
2019-05-06T18:08:02.906Z,37.97
2019-05-06T18:13:07.335Z,36.60
2019-05-06T18:18:09.332Z,35.40
2019-05-06T18:23:12.944Z,35.03
2019-05-06T18:28:22.696Z,32.83
2019-05-06T18:33:24.993Z,25.73
2019-05-06T18:38:28.432Z,25.93
2019-05-06T18:43:33.218Z,24.80
2019-05-06T18:48:35.926Z,24.13
2019-05-06T18:53:39.732Z,24.73
2019-05-06T18:58:43.019Z,24.70
2019-05-06T19:04:03.987Z,24.50
2019-05-06T19:09:12.669Z,25.13
2019-05-06T19:14:15.363Z,24.40
2019-05-06T19:19:17.684Z,25.00
2019-05-06T19:24:19.883Z,24.93
2019-05-06T19:29:23.232Z,22.90
2019-05-06T19:34:25.570Z,22.90
2019-05-06T19:39:27.826Z,22.87
2019-05-06T19:44:29.654Z,23.00
2019-05-06T19:49:32.775Z,22.60
2019-05-06T19:54:35.288Z,21.10
2019-05-06T19:59:38.198Z,20.87
2019-05-06T20:04:44.081Z,18.40
2019-05-06T20:09:47.793Z,18.13
2019-05-06T20:14:52.367Z,16.97
2019-05-06T20:19:54.088Z,15.80
2019-05-06T20:24:56.329Z,15.87
2019-05-06T20:29:57.846Z,14.53
2019-05-06T20:34:59.616Z,13.20
2019-05-06T20:40:02.446Z,12.93
2019-05-06T20:45:05.855Z,12.97
2019-05-06T20:50:09.124Z,12.33
2019-05-06T20:55:13.695Z,12.53
2019-05-06T21:00:16.709Z,11.90
2019-05-06T21:05:18.665Z,12.27
2019-05-06T21:10:22.041Z,12.30
2019-05-06T21:15:26.740Z,12.80
2019-05-06T21:20:28.408Z,13.40
2019-05-06T21:25:32.605Z,12.70
2019-05-06T21:30:34.115Z,12.10
2019-05-06T21:35:35.580Z,12.47
2019-05-06T21:40:37.393Z,12.40
2019-05-06T21:45:39.037Z,12.20
2019-05-06T21:50:42.690Z,12.83
2019-05-06T21:55:44.709Z,13.57
2019-05-06T22:00:58.472Z,11.93
2019-05-06T22:06:04.263Z,11.87
2019-05-06T22:11:09.122Z,10.20
2019-05-06T22:16:15.552Z,10.17
2019-05-06T22:21:22.524Z,9.47
2019-05-06T22:26:24.968Z,9.43
2019-05-06T22:31:27.006Z,9.93
2019-05-06T22:36:28.504Z,11.33
2019-05-06T22:41:29.924Z,13.20
2019-05-06T22:46:32.940Z,11.47
2019-05-06T22:51:35.154Z,12.20
2019-05-06T22:56:36.579Z,11.10
2019-05-06T23:01:46.233Z,12.03
2019-05-06T23:06:47.871Z,12.30
2019-05-06T23:11:49.867Z,12.40
2019-05-06T23:16:52.161Z,12.80
2019-05-06T23:21:54.001Z,12.43
2019-05-06T23:26:56.226Z,12.63
2019-05-06T23:31:57.758Z,13.20
2019-05-06T23:37:03.039Z,14.00
2019-05-06T23:42:42.594Z,12.97
2019-05-06T23:48:22.860Z,11.60
2019-05-06T23:54:03.180Z,12.10
2019-05-06T23:59:04.927Z,12.20
